KHQG

Hugoton Municipal Airport

Hugoton, Kansas, USA
METAR KHQG 230955Z AUTO 32008KT 1/2SM FZFG OVC001 M07/M09 A3011 RMK AO2 T10711090
Observed Flight Rules
Feb-23 @ 09:55 UTC (35 minutes ago) Instrument Flight Rules
Wind Visibility Clouds Conditions
320° at 8 knots 1/2 miles
  • Overcast at 100' AGL
  • Freezing
  • Fog
Temperatures Readings
Current -7°C / 19°F
Dewpoint -9°C / 16°F
Humidity 86%
Altimeter 30.11" Hg
Pressure 1020 hPa
Elevation 956
METAR KHQG 230955Z AUTO 32008KT 1/2SM FZFG OVC001 M07/M09 A3011 RMK AO2 T10711090
Observed Flight Rules
Feb-23 @ 09:55 UTC
(35 minutes ago)
LIFR
Wind Visibility
320° at 8 knots 1/2 miles
Clouds
  • Overcast at 100' AGL
Conditions
  • Freezing
  • Fog
Temperature Dewpoint
-7°C / 19°F -9°C / 16°F
Humidity Altimeter Pressure
86% 30.11" Hg 1020 hPa